Date,TemperatureHighF,TemperatureAvgF,TemperatureLowF,DewpointHighF,DewpointAvgF,DewpointLowF,HumidityHigh,HumidityAvg,HumidityLow,PressureMaxIn,PressureMinIn,WindSpeedMaxMPH,WindSpeedAvgMPH,GustSpeedMaxMPH,PrecipitationSumIn
2013-2-1,31,27,21,19,10,4,64,50,36,30.06,29.56,13,3,17,0.00
2013-2-2,28,23,17,13,8,3,65,52,42,30.23,30.03,10,1,14,0.00
2013-2-3,26,23,20,21,19,12,91,85,58,30.03,29.70,9,1,9,0.02
2013-2-4,28,22,18,20,12,7,91,66,43,29.93,29.69,13,2,15,0.00
2013-2-5,26,23,19,22,15,10,91,70,61,30.00,29.91,4,0,5,0.02
2013-2-6,37,28,24,28,19,6,96,71,42,30.27,29.89,16,1,16,0.01
2013-2-7,28,23,17,15,6,2,65,49,34,30.50,30.27,11,1,12,0.00
2013-2-8,31,28,17,31,25,14,100,90,65,30.46,29.54,21,3,24,0.76
2013-2-9,20,17,12,20,15,7,99,92,80,30.17,29.50,22,5,30,0.58
2013-2-10,37,19,4,21,10,-2,88,68,30,30.38,30.17,6,0,9,0.10
2013-2-11,42,30,13,42,29,8,100,95,77,30.33,29.58,12,0,13,0.17
2013-2-12,43,37,30,40,30,24,100,77,57,29.86,29.58,15,2,17,0.00
2013-2-13,41,32,24,28,25,20,89,76,52,29.85,29.66,7,0,9,0.00
2013-2-14,42,34,29,28,24,20,89,68,44,29.97,29.69,11,1,12,0.00
2013-2-15,49,36,28,36,31,23,100,82,59,29.98,29.89,14,1,15,0.00
2013-2-16,36,32,29,32,28,19,100,86,60,29.92,29.66,12,1,15,0.01
2013-2-17,29,20,16,21,12,1,93,72,46,29.66,29.36,23,5,25,0.06
2013-2-18,30,21,13,5,2,0,57,45,31,30.14,29.66,20,4,20,0.00
2013-2-19,45,34,21,41,25,3,100,69,43,30.14,29.55,11,1,12,0.38
2013-2-20,39,30,24,39,21,11,100,68,46,29.76,29.50,19,3,20,0.01
2013-2-21,32,26,23,16,14,11,71,60,47,30.16,29.75,18,4,20,0.00
2013-2-22,36,29,22,26,22,16,85,73,60,30.36,30.16,12,1,12,0.00
2013-2-23,37,32,28,32,28,24,98,85,73,30.31,29.88,6,0,9,0.24
2013-2-24,36,33,29,36,33,29,100,100,98,29.88,29.66,14,2,17,0.23
2013-2-25,37,32,28,32,30,26,100,89,71,30.22,29.86,10,0,10,0.02
2013-2-26,41,34,26,35,29,25,99,83,63,30.32,30.12,7,0,10,0.03
2013-2-27,40,38,35,40,37,31,100,98,86,30.12,29.53,18,3,19,0.77
2013-2-28,43,36,32,38,34,31,100,93,77,29.62,29.50,4,0,5,0.00